Terminal Aerodrome Forecast
Issued by NWS

Home | Current Version | Previous Version | Graphics & Text | Print | Product List | Glossary Off
Versions: 1 2 3 4 5 6 7 8 9 10 11 12 13 14 15 16 17 18 19

000
FTUS43 KDDC 220933 AAA
TAFGCK
TAF AMD
KGCK 220933Z 2210/2306 01010KT P6SM SCT009 OVC035
      TEMPO 2210/2213 3SM BR BKN009=

USA.gov is the U.S. government's official web portal to all federal, state and local government web resources and services.